Wetterdaten: Woche 14.12.09 - 20.12.09 (KW51)
Datum Zeit Temperatur Luftfeuchte Luftdruck Niederschlag Wind Richtung Sonnenschein Solar Taupunkt Windchill Windben
14.12.2009 00:00 -0.6 C 68 % 1016.8 hPa 0.0 l/m 3.6 km/h (1 Bft) NO 0.00 h 0 W/m -5.9 C -1.4 C 8.7 km/h (2 Bft)
14.12.2009 01:00 -0.8 C 68 % 1016.6 hPa 0.0 l/m 3.6 km/h (1 Bft) NO 0.00 h 0 W/m -6.0 C -1.6 C 7.8 km/h (2 Bft)
14.12.2009 02:00 -1.0 C 69 % 1016.3 hPa 0.0 l/m 3.5 km/h (1 Bft) N-NO 0.00 h 0 W/m -5.9 C -1.7 C 7.8 km/h (2 Bft)
14.12.2009 03:00 -1.1 C 70 % 1016.2 hPa 0.0 l/m 3.7 km/h (1 Bft) NO 0.00 h 0 W/m -5.9 C -1.7 C 8.5 km/h (2 Bft)
14.12.2009 04:00 -1.1 C 70 % 1016.1 hPa 0.0 l/m 3.6 km/h (1 Bft) NO 0.00 h 0 W/m -5.8 C -1.8 C 8.3 km/h (2 Bft)
14.12.2009 05:00 -1.2 C 71 % 1015.9 hPa 0.0 l/m 4.6 km/h (1 Bft) NO 0.00 h 0 W/m -5.8 C -2.4 C 10.4 km/h (2 Bft)
14.12.2009 06:00 -1.2 C 70 % 1016.0 hPa 0.0 l/m 4.0 km/h (1 Bft) O 0.00 h 0 W/m -5.9 C -2.2 C 9.2 km/h (2 Bft)
14.12.2009 07:00 -1.2 C 71 % 1016.0 hPa 0.0 l/m 2.8 km/h (1 Bft) O 0.00 h 0 W/m -5.8 C -1.6 C 6.3 km/h (2 Bft)
14.12.2009 08:00 -1.1 C 68 % 1016.1 hPa 0.0 l/m 4.3 km/h (1 Bft) O 0.00 h 7 W/m -6.2 C -2.2 C 8.9 km/h (2 Bft)
14.12.2009 09:00 -1.3 C 68 % 1016.2 hPa 0.0 l/m 4.5 km/h (1 Bft) O-SO 0.00 h 18 W/m -6.4 C -2.5 C 9.4 km/h (2 Bft)
14.12.2009 10:00 -1.4 C 68 % 1016.5 hPa 0.0 l/m 4.4 km/h (1 Bft) NO 0.00 h 30 W/m -6.5 C -2.4 C 9.9 km/h (2 Bft)
14.12.2009 11:00 -1.4 C 68 % 1016.2 hPa 0.0 l/m 3.1 km/h (1 Bft) O-SO 0.00 h 48 W/m -6.5 C -2.1 C 6.7 km/h (2 Bft)
14.12.2009 12:00 -1.5 C 68 % 1016.0 hPa 0.0 l/m 4.1 km/h (1 Bft) O-SO 0.00 h 55 W/m -6.7 C -2.6 C 9.2 km/h (2 Bft)
14.12.2009 13:00 -1.4 C 67 % 1015.7 hPa 0.0 l/m 4.3 km/h (1 Bft) O-SO 0.00 h 56 W/m -6.8 C -2.5 C 9.3 km/h (2 Bft)
14.12.2009 14:00 -1.2 C 67 % 1015.6 hPa 0.0 l/m 3.9 km/h (1 Bft) O 0.00 h 26 W/m -6.5 C -2.0 C 8.4 km/h (2 Bft)
14.12.2009 15:00 -1.4 C 67 % 1015.8 hPa 0.0 l/m 3.6 km/h (1 Bft) O 0.00 h 12 W/m -6.9 C -2.2 C 7.9 km/h (2 Bft)
14.12.2009 16:00 -1.7 C 65 % 1016.0 hPa 0.0 l/m 3.9 km/h (1 Bft) O-SO 0.00 h 6 W/m -7.3 C -2.7 C 7.6 km/h (2 Bft)
14.12.2009 17:00 -1.9 C 66 % 1016.0 hPa 0.0 l/m 3.9 km/h (1 Bft) O-SO 0.00 h 0 W/m -7.3 C -2.8 C 7.9 km/h (2 Bft)
14.12.2009 18:00 -2.1 C 68 % 1015.8 hPa 0.0 l/m 3.7 km/h (1 Bft) O 0.00 h 0 W/m -7.2 C -2.9 C 7.8 km/h (2 Bft)
14.12.2009 19:00 -2.0 C 68 % 1015.7 hPa 0.0 l/m 2.6 km/h (1 Bft) O 0.00 h 0 W/m -7.1 C -2.4 C 6.2 km/h (2 Bft)
14.12.2009 20:00 -1.9 C 68 % 1015.8 hPa 0.0 l/m 4.1 km/h (1 Bft) O 0.00 h 0 W/m -6.9 C -3.0 C 9.0 km/h (2 Bft)
14.12.2009 21:00 -1.8 C 68 % 1015.7 hPa 0.0 l/m 3.5 km/h (1 Bft) O-SO 0.00 h 0 W/m -6.9 C -2.5 C 7.5 km/h (2 Bft)
14.12.2009 22:00 -1.8 C 68 % 1015.4 hPa 0.0 l/m 3.3 km/h (1 Bft) O 0.00 h 0 W/m -7.0 C -2.4 C 7.0 km/h (2 Bft)
14.12.2009 23:00 -1.9 C 67 % 1015.2 hPa 0.0 l/m 5.2 km/h (1 Bft) O 0.00 h 0 W/m -7.2 C -3.5 C 10.8 km/h (2 Bft)
15.12.2009 00:00 -2.2 C 67 % 1015.2 hPa 0.0 l/m 3.8 km/h (1 Bft) N-NO 0.00 h 0 W/m -7.5 C -3.1 C 8.6 km/h (2 Bft)
15.12.2009 01:00 -2.3 C 67 % 1014.9 hPa 0.0 l/m 4.3 km/h (1 Bft) N-NO 0.00 h 0 W/m -7.6 C -3.6 C 8.8 km/h (2 Bft)
15.12.2009 02:00 -2.4 C 68 % 1014.6 hPa 0.0 l/m 3.5 km/h (1 Bft) N-NO 0.00 h 0 W/m -7.5 C -3.2 C 7.5 km/h (2 Bft)
15.12.2009 03:00 -2.5 C 68 % 1014.3 hPa 0.0 l/m 2.4 km/h (1 Bft) N-NO 0.00 h 0 W/m -7.6 C -2.9 C 6.2 km/h (2 Bft)
15.12.2009 04:00 -2.6 C 68 % 1014.2 hPa 0.0 l/m 2.9 km/h (1 Bft) N-NO 0.00 h 0 W/m -7.7 C -3.0 C 6.3 km/h (2 Bft)
15.12.2009 05:00 -2.6 C 69 % 1013.9 hPa 0.0 l/m 3.0 km/h (1 Bft) N-NO 0.00 h 0 W/m -7.5 C -3.2 C 6.7 km/h (2 Bft)
15.12.2009 06:00 -2.7 C 70 % 1013.7 hPa 0.0 l/m 3.1 km/h (1 Bft) NO 0.00 h 0 W/m -7.5 C -3.4 C 7.1 km/h (2 Bft)
15.12.2009 07:00 -2.8 C 71 % 1013.7 hPa 0.0 l/m 2.9 km/h (1 Bft) NO 0.00 h 0 W/m -7.4 C -3.3 C 6.5 km/h (2 Bft)
15.12.2009 08:00 -2.9 C 70 % 1014.0 hPa 0.0 l/m 2.9 km/h (1 Bft) N-NO 0.00 h 5 W/m -7.6 C -3.6 C 6.5 km/h (2 Bft)
15.12.2009 09:00 -2.8 C 71 % 1014.1 hPa 0.0 l/m 3.3 km/h (1 Bft) N-NO 0.00 h 11 W/m -7.3 C -3.5 C 7.2 km/h (2 Bft)
15.12.2009 10:00 -2.9 C 75 % 1014.0 hPa 0.0 l/m 2.5 km/h (1 Bft) NO 0.00 h 23 W/m -6.7 C -3.4 C 6.0 km/h (2 Bft)
15.12.2009 11:00 -2.9 C 79 % 1013.8 hPa 0.0 l/m 1.2 km/h (1 Bft) N-NO 0.00 h 50 W/m -6.0 C -3.0 C 3.6 km/h (1 Bft)
15.12.2009 12:00 -2.6 C 80 % 1013.2 hPa 0.0 l/m 1.6 km/h (1 Bft) O 0.00 h 84 W/m -5.6 C -2.9 C 3.9 km/h (1 Bft)
15.12.2009 13:00 -2.3 C 73 % 1012.7 hPa 0.0 l/m 3.4 km/h (1 Bft) O-SO 0.00 h 78 W/m -6.5 C -3.0 C 6.7 km/h (2 Bft)
15.12.2009 14:00 -2.2 C 68 % 1012.5 hPa 0.0 l/m 2.4 km/h (1 Bft) O-SO 0.00 h 24 W/m -7.2 C -2.6 C 5.6 km/h (1 Bft)
15.12.2009 15:00 -2.3 C 68 % 1012.6 hPa 0.0 l/m 1.3 km/h (1 Bft) O-NO 0.00 h 15 W/m -7.4 C -2.5 C 4.0 km/h (1 Bft)
15.12.2009 16:00 -2.5 C 69 % 1013.0 hPa 0.0 l/m 2.7 km/h (1 Bft) NO 0.00 h 6 W/m -7.4 C -3.0 C 6.0 km/h (2 Bft)
15.12.2009 17:00 -2.8 C 74 % 1012.9 hPa 0.0 l/m 1.0 km/h (0 Bft) N-NO 0.00 h 0 W/m -6.8 C -2.8 C 3.4 km/h (1 Bft)
15.12.2009 18:00 -2.8 C 73 % 1012.8 hPa 0.0 l/m 1.0 km/h (0 Bft) NO 0.00 h 0 W/m -7.0 C -2.9 C 3.4 km/h (1 Bft)
15.12.2009 19:00 -2.8 C 72 % 1012.7 hPa 0.0 l/m 1.3 km/h (1 Bft) N-NO 0.00 h 0 W/m -7.1 C -2.9 C 4.1 km/h (1 Bft)
15.12.2009 20:00 -2.6 C 70 % 1012.7 hPa 0.0 l/m 1.4 km/h (1 Bft) N-NO 0.00 h 0 W/m -7.4 C -2.7 C 3.9 km/h (1 Bft)
15.12.2009 21:00 -2.4 C 67 % 1012.6 hPa 0.0 l/m 2.3 km/h (1 Bft) O-SO 0.00 h 0 W/m -7.7 C -2.8 C 5.4 km/h (1 Bft)
15.12.2009 22:00 -2.3 C 67 % 1012.3 hPa 0.0 l/m 2.9 km/h (1 Bft) O 0.00 h 0 W/m -7.7 C -2.8 C 6.5 km/h (2 Bft)
15.12.2009 23:00 -2.2 C 67 % 1012.3 hPa 0.0 l/m 1.7 km/h (1 Bft) O 0.00 h 0 W/m -7.4 C -2.4 C 4.5 km/h (1 Bft)
16.12.2009 00:00 -2.1 C 69 % 1012.2 hPa 0.0 l/m 1.3 km/h (1 Bft) N 0.00 h 0 W/m -7.1 C -2.3 C 3.4 km/h (1 Bft)
16.12.2009 01:00 -2.1 C 70 % 1012.1 hPa 0.0 l/m 0.7 km/h (0 Bft) N 0.00 h 0 W/m -6.9 C -2.1 C 2.1 km/h (1 Bft)
16.12.2009 02:00 -2.0 C 69 % 1012.0 hPa 0.0 l/m 0.3 km/h (0 Bft) O-NO 0.00 h 0 W/m -6.8 C -2.0 C 1.4 km/h (1 Bft)
16.12.2009 03:00 -1.8 C 69 % 1011.9 hPa 0.0 l/m 0.8 km/h (0 Bft) NO 0.00 h 0 W/m -6.8 C -1.9 C 2.6 km/h (1 Bft)
16.12.2009 04:00 -1.8 C 69 % 1011.7 hPa 0.0 l/m 0.5 km/h (0 Bft) O 0.00 h 0 W/m -6.7 C -1.8 C 1.8 km/h (1 Bft)
16.12.2009 05:00 -1.8 C 71 % 1011.6 hPa 0.0 l/m 0.7 km/h (0 Bft) O-NO 0.00 h 0 W/m -6.4 C -1.8 C 1.8 km/h (1 Bft)
16.12.2009 06:00 -1.9 C 74 % 1011.5 hPa 0.0 l/m 0.0 km/h (0 Bft) N 0.00 h 0 W/m -6.0 C -1.9 C 0.2 km/h (0 Bft)
16.12.2009 07:00 -2.1 C 74 % 1011.4 hPa 0.0 l/m 0.1 km/h (0 Bft) NO 0.00 h 0 W/m -6.0 C -2.1 C 0.9 km/h (0 Bft)
16.12.2009 08:00 -2.0 C 74 % 1011.3 hPa 0.0 l/m 0.3 km/h (0 Bft) O-NO 0.00 h 5 W/m -6.0 C -2.0 C 1.5 km/h (1 Bft)
16.12.2009 09:00 -2.1 C 76 % 1011.0 hPa 0.0 l/m 0.7 km/h (0 Bft) O 0.00 h 13 W/m -5.8 C -2.1 C 2.6 km/h (1 Bft)
16.12.2009 10:00 -2.3 C 80 % 1010.8 hPa 0.2 l/m 1.6 km/h (1 Bft) N-NO 0.00 h 47 W/m -5.2 C -2.4 C 4.5 km/h (1 Bft)
16.12.2009 11:00 -2.3 C 83 % 1010.5 hPa 0.0 l/m 1.2 km/h (1 Bft) O-SO 0.00 h 55 W/m -4.7 C -2.4 C 3.4 km/h (1 Bft)
16.12.2009 12:00 -2.2 C 84 % 1010.0 hPa 0.0 l/m 1.1 km/h (1 Bft) O-NO 0.00 h 61 W/m -4.5 C -2.3 C 3.0 km/h (1 Bft)
16.12.2009 13:00 -1.8 C 84 % 1009.6 hPa 0.0 l/m 0.2 km/h (0 Bft) O 0.00 h 50 W/m -4.2 C -1.8 C 0.8 km/h (0 Bft)
16.12.2009 14:00 -1.9 C 83 % 1009.2 hPa 0.0 l/m 0.2 km/h (0 Bft) NO 0.00 h 21 W/m -4.3 C -1.9 C 1.0 km/h (0 Bft)
16.12.2009 15:00 -2.2 C 84 % 1009.2 hPa 0.0 l/m 0.5 km/h (0 Bft) O-SO 0.00 h 10 W/m -4.6 C -2.2 C 1.8 km/h (1 Bft)
16.12.2009 16:00 -2.3 C 83 % 1008.9 hPa 0.0 l/m 0.3 km/h (0 Bft) NO 0.00 h 5 W/m -4.8 C -2.3 C 1.4 km/h (1 Bft)
16.12.2009 17:00 -2.4 C 84 % 1008.7 hPa 0.0 l/m 0.3 km/h (0 Bft) O 0.00 h 0 W/m -4.7 C -2.4 C 1.5 km/h (1 Bft)
16.12.2009 18:00 -2.5 C 84 % 1008.5 hPa 0.0 l/m 0.5 km/h (0 Bft) O-NO 0.00 h 0 W/m -4.8 C -2.5 C 2.3 km/h (1 Bft)
16.12.2009 19:00 -2.6 C 82 % 1008.3 hPa 0.0 l/m 0.8 km/h (0 Bft) NO 0.00 h 0 W/m -5.2 C -2.6 C 3.0 km/h (1 Bft)
16.12.2009 20:00 -2.6 C 79 % 1008.2 hPa 0.0 l/m 1.1 km/h (0 Bft) N-NO 0.00 h 0 W/m -5.7 C -2.6 C 3.2 km/h (1 Bft)
16.12.2009 21:00 -2.7 C 76 % 1008.3 hPa 0.0 l/m 1.9 km/h (1 Bft) N-NO 0.00 h 0 W/m -6.4 C -2.7 C 4.7 km/h (1 Bft)
16.12.2009 22:00 -2.8 C 74 % 1008.3 hPa 0.0 l/m 0.3 km/h (0 Bft) O-SO 0.00 h 0 W/m -6.8 C -2.8 C 1.1 km/h (1 Bft)
16.12.2009 23:00 -2.8 C 74 % 1008.3 hPa 0.0 l/m 0.1 km/h (0 Bft) O-SO 0.00 h 0 W/m -6.8 C -2.8 C 0.7 km/h (0 Bft)
17.12.2009 00:00 -3.1 C 72 % 1008.2 hPa 0.0 l/m 0.1 km/h (0 Bft) N-NO 0.00 h 0 W/m -7.4 C -3.1 C 1.2 km/h (1 Bft)
17.12.2009 01:00 -3.1 C 69 % 1008.0 hPa 0.0 l/m 0.1 km/h (0 Bft) SO 0.00 h 0 W/m -8.0 C -3.1 C 0.4 km/h (0 Bft)
17.12.2009 02:00 -3.2 C 69 % 1008.3 hPa 0.0 l/m 0.1 km/h (0 Bft) SO 0.00 h 0 W/m -8.2 C -3.2 C 0.4 km/h (0 Bft)
17.12.2009 03:00 -3.3 C 71 % 1008.4 hPa 0.0 l/m 0.1 km/h (0 Bft) SO 0.00 h 0 W/m -7.8 C -3.3 C 0.5 km/h (0 Bft)
17.12.2009 04:00 -3.6 C 74 % 1008.3 hPa 0.0 l/m 0.0 km/h (0 Bft) N 0.00 h 0 W/m -7.6 C -3.6 C 0.1 km/h (0 Bft)
17.12.2009 05:00 -3.7 C 71 % 1008.3 hPa 0.0 l/m 0.1 km/h (0 Bft) SO 0.00 h 0 W/m -8.1 C -3.7 C 0.3 km/h (0 Bft)
17.12.2009 06:00 -3.8 C 70 % 1008.3 hPa 0.0 l/m 0.0 km/h (0 Bft) SO 0.00 h 0 W/m -8.4 C -3.8 C 0.1 km/h (0 Bft)
17.12.2009 07:00 -3.8 C 71 % 1008.5 hPa 0.0 l/m 0.0 km/h (0 Bft) N 0.00 h 0 W/m -8.3 C -3.8 C 0.1 km/h (0 Bft)
17.12.2009 08:00 -3.9 C 72 % 1008.7 hPa 0.0 l/m 0.3 km/h (0 Bft) SO 0.00 h 8 W/m -8.1 C -3.9 C 0.7 km/h (0 Bft)
17.12.2009 09:00 -3.8 C 71 % 1009.1 hPa 0.0 l/m 0.2 km/h (0 Bft) SO 0.00 h 26 W/m -8.2 C -3.8 C 0.8 km/h (0 Bft)
17.12.2009 10:00 -3.3 C 68 % 1009.4 hPa 0.0 l/m 0.6 km/h (0 Bft) NO 0.00 h 80 W/m -8.3 C -3.3 C 2.0 km/h (1 Bft)
17.12.2009 11:00 -2.8 C 64 % 1009.2 hPa 0.0 l/m 0.8 km/h (0 Bft) O 0.22 h 144 W/m -8.6 C -2.8 C 2.6 km/h (1 Bft)
17.12.2009 12:00 -2.5 C 60 % 1008.8 hPa 0.0 l/m 0.8 km/h (0 Bft) O 0.00 h 137 W/m -9.3 C -2.5 C 2.4 km/h (1 Bft)
17.12.2009 13:00 -2.2 C 59 % 1008.6 hPa 0.0 l/m 0.5 km/h (0 Bft) O-SO 0.00 h 129 W/m -9.2 C -2.3 C 1.9 km/h (1 Bft)
17.12.2009 14:00 -2.1 C 58 % 1008.5 hPa 0.0 l/m 0.2 km/h (0 Bft) O-SO 0.00 h 88 W/m -9.3 C -2.1 C 0.8 km/h (0 Bft)
17.12.2009 15:00 -2.1 C 59 % 1008.8 hPa 0.0 l/m 0.1 km/h (0 Bft) O-SO 0.00 h 41 W/m -9.1 C -2.1 C 0.6 km/h (0 Bft)
17.12.2009 16:00 -2.4 C 62 % 1009.0 hPa 0.0 l/m 0.3 km/h (0 Bft) O-SO 0.00 h 12 W/m -8.8 C -2.4 C 0.7 km/h (0 Bft)
17.12.2009 17:00 -2.9 C 65 % 1009.0 hPa 0.0 l/m 1.8 km/h (1 Bft) O-SO 0.00 h 0 W/m -8.5 C -2.9 C 3.1 km/h (1 Bft)
17.12.2009 18:00 -3.4 C 69 % 1009.0 hPa 0.0 l/m 1.7 km/h (1 Bft) O-SO 0.00 h 0 W/m -8.2 C -3.4 C 3.3 km/h (1 Bft)
17.12.2009 19:00 -3.6 C 69 % 1009.0 hPa 0.0 l/m 2.5 km/h (1 Bft) O 0.00 h 0 W/m -8.5 C -4.0 C 3.9 km/h (1 Bft)
17.12.2009 20:00 -4.1 C 69 % 1008.9 hPa 0.0 l/m 1.1 km/h (1 Bft) O 0.00 h 0 W/m -8.9 C -4.1 C 2.6 km/h (1 Bft)
17.12.2009 21:00 -5.0 C 71 % 1009.1 hPa 0.0 l/m 0.7 km/h (0 Bft) O-SO 0.00 h 0 W/m -9.3 C -5.0 C 1.6 km/h (1 Bft)
17.12.2009 22:00 -5.8 C 76 % 1009.0 hPa 0.0 l/m 0.0 km/h (0 Bft) N 0.00 h 0 W/m -9.3 C -5.8 C 0.1 km/h (0 Bft)
17.12.2009 23:00 -5.6 C 81 % 1008.8 hPa 0.0 l/m 0.8 km/h (0 Bft) SO 0.00 h 0 W/m -8.4 C -5.7 C 1.6 km/h (1 Bft)
18.12.2009 00:00 -5.3 C 83 % 1008.4 hPa 0.0 l/m 0.2 km/h (0 Bft) SO 0.00 h 0 W/m -7.7 C -5.3 C 0.4 km/h (0 Bft)
18.12.2009 01:00 -5.1 C 82 % 1008.1 hPa 0.0 l/m 0.0 km/h (0 Bft) N 0.00 h 0 W/m -7.7 C -5.1 C 0.2 km/h (0 Bft)
18.12.2009 02:00 -4.8 C 80 % 1008.1 hPa 0.0 l/m 0.1 km/h (0 Bft) O 0.00 h 0 W/m -7.7 C -4.8 C 0.7 km/h (0 Bft)
18.12.2009 03:00 -4.9 C 76 % 1007.9 hPa 0.0 l/m 0.2 km/h (0 Bft) NO 0.00 h 0 W/m -8.5 C -4.9 C 0.8 km/h (0 Bft)
18.12.2009 04:00 -5.0 C 77 % 1007.2 hPa 0.0 l/m 0.4 km/h (0 Bft) O-SO 0.00 h 0 W/m -8.4 C -5.0 C 1.6 km/h (1 Bft)
18.12.2009 05:00 -4.4 C 74 % 1006.7 hPa 0.0 l/m 1.5 km/h (1 Bft) O 0.00 h 0 W/m -8.4 C -4.7 C 3.6 km/h (1 Bft)
18.12.2009 06:00 -4.3 C 73 % 1006.3 hPa 0.0 l/m 0.1 km/h (0 Bft) O-NO 0.00 h 0 W/m -8.5 C -4.3 C 0.6 km/h (0 Bft)
18.12.2009 07:00 -4.5 C 72 % 1006.2 hPa 0.0 l/m 0.7 km/h (0 Bft) O 0.00 h 0 W/m -8.7 C -4.6 C 2.2 km/h (1 Bft)
18.12.2009 08:00 -4.4 C 69 % 1006.2 hPa 0.0 l/m 2.0 km/h (1 Bft) O-SO 0.00 h 13 W/m -9.2 C -4.5 C 4.5 km/h (1 Bft)
18.12.2009 09:00 -4.2 C 68 % 1006.3 hPa 0.0 l/m 1.4 km/h (1 Bft) O 0.00 h 48 W/m -9.3 C -4.2 C 3.6 km/h (1 Bft)
18.12.2009 10:00 -3.8 C 66 % 1006.0 hPa 0.0 l/m 2.3 km/h (1 Bft) NO 0.00 h 103 W/m -9.2 C -4.2 C 5.7 km/h (1 Bft)
18.12.2009 11:00 -3.3 C 64 % 1005.7 hPa 0.0 l/m 2.1 km/h (1 Bft) O-NO 0.18 h 150 W/m -9.1 C -3.7 C 4.9 km/h (1 Bft)
18.12.2009 12:00 -2.4 C 61 % 1004.8 hPa 0.0 l/m 4.0 km/h (1 Bft) O-SO 0.93 h 253 W/m -8.8 C -3.7 C 6.6 km/h (2 Bft)
18.12.2009 13:00 -2.3 C 58 % 1004.2 hPa 0.0 l/m 3.8 km/h (1 Bft) O-SO 0.00 h 126 W/m -9.3 C -3.4 C 6.4 km/h (2 Bft)
18.12.2009 14:00 -2.3 C 59 % 1003.9 hPa 0.0 l/m 3.2 km/h (1 Bft) O-SO 0.28 h 117 W/m -9.3 C -3.0 C 5.6 km/h (1 Bft)
18.12.2009 15:00 -2.2 C 57 % 1003.9 hPa 0.0 l/m 2.9 km/h (1 Bft) O-SO 0.50 h 80 W/m -9.6 C -2.6 C 5.5 km/h (1 Bft)
18.12.2009 16:00 -2.8 C 59 % 1004.0 hPa 0.0 l/m 2.2 km/h (1 Bft) O-SO 0.07 h 15 W/m -9.7 C -3.0 C 3.8 km/h (1 Bft)
18.12.2009 17:00 -3.3 C 58 % 1004.1 hPa 0.0 l/m 1.1 km/h (1 Bft) N-NO 0.00 h 0 W/m -10.3 C -3.3 C 3.4 km/h (1 Bft)
18.12.2009 18:00 -3.6 C 58 % 1004.1 hPa 0.0 l/m 1.1 km/h (1 Bft) NO 0.00 h 0 W/m -10.7 C -3.6 C 3.0 km/h (1 Bft)
18.12.2009 19:00 -3.9 C 59 % 1004.2 hPa 0.0 l/m 0.5 km/h (0 Bft) NO 0.00 h 0 W/m -10.7 C -3.9 C 1.8 km/h (1 Bft)
18.12.2009 20:00 -4.1 C 58 % 1004.2 hPa 0.0 l/m 0.5 km/h (0 Bft) N-NO 0.00 h 0 W/m -11.2 C -4.1 C 1.7 km/h (1 Bft)
18.12.2009 21:00 -4.5 C 59 % 1004.2 hPa 0.0 l/m 1.4 km/h (1 Bft) N-NO 0.00 h 0 W/m -11.3 C -4.8 C 2.9 km/h (1 Bft)
18.12.2009 22:00 -5.8 C 66 % 1003.9 hPa 0.0 l/m 2.2 km/h (1 Bft) O-SO 0.00 h 0 W/m -11.2 C -6.2 C 3.5 km/h (1 Bft)
18.12.2009 23:00 -6.1 C 70 % 1004.1 hPa 0.0 l/m 1.5 km/h (1 Bft) O-SO 0.00 h 0 W/m -10.8 C -6.1 C 2.5 km/h (1 Bft)
19.12.2009 00:00 -6.2 C 72 % 1003.8 hPa 0.0 l/m 0.5 km/h (0 Bft) SO 0.00 h 0 W/m -10.5 C -6.2 C 1.3 km/h (1 Bft)
19.12.2009 01:00 -6.3 C 75 % 1003.8 hPa 0.0 l/m 0.1 km/h (0 Bft) SO 0.00 h 0 W/m -9.9 C -6.3 C 0.5 km/h (0 Bft)
19.12.2009 02:00 -6.0 C 79 % 1004.0 hPa 0.0 l/m 1.3 km/h (1 Bft) N-NW 0.00 h 0 W/m -9.1 C -6.0 C 3.1 km/h (1 Bft)
19.12.2009 03:00 -5.6 C 81 % 1003.8 hPa 0.0 l/m 0.9 km/h (0 Bft) NW 0.00 h 0 W/m -8.4 C -5.6 C 2.9 km/h (1 Bft)
19.12.2009 04:00 -5.3 C 79 % 1003.5 hPa 0.0 l/m 7.1 km/h (2 Bft) W-NW 0.00 h 0 W/m -8.4 C -8.2 C 11.6 km/h (2 Bft)
19.12.2009 05:00 -5.3 C 80 % 1003.2 hPa 0.0 l/m 5.2 km/h (1 Bft) W 0.00 h 0 W/m -8.2 C -7.3 C 8.8 km/h (2 Bft)
19.12.2009 06:00 -5.3 C 81 % 1003.1 hPa 0.0 l/m 3.8 km/h (1 Bft) W-SW 0.00 h 0 W/m -8.0 C -6.4 C 7.3 km/h (2 Bft)
19.12.2009 07:00 -5.2 C 80 % 1003.2 hPa 0.0 l/m 2.0 km/h (1 Bft) SW 0.00 h 0 W/m -8.0 C -5.5 C 3.9 km/h (1 Bft)
19.12.2009 08:00 -5.1 C 80 % 1003.1 hPa 0.0 l/m 2.0 km/h (1 Bft) S 0.00 h 12 W/m -8.0 C -5.3 C 4.2 km/h (1 Bft)
19.12.2009 09:00 -5.2 C 82 % 1003.4 hPa 0.0 l/m 3.0 km/h (1 Bft) SW 0.00 h 31 W/m -7.8 C -6.0 C 5.7 km/h (1 Bft)
19.12.2009 10:00 -5.2 C 80 % 1003.5 hPa 0.0 l/m 10.1 km/h (2 Bft) W 0.02 h 95 W/m -8.1 C -9.3 C 16.0 km/h (3 Bft)
19.12.2009 11:00 -5.1 C 78 % 1003.5 hPa 0.0 l/m 13.5 km/h (3 Bft) W 0.65 h 170 W/m -8.4 C -10.3 C 20.5 km/h (4 Bft)
19.12.2009 12:00 -5.7 C 77 % 1003.7 hPa 0.0 l/m 14.4 km/h (3 Bft) W 0.00 h 136 W/m -9.1 C -11.2 C 22.1 km/h (4 Bft)
19.12.2009 13:00 -7.0 C 78 % 1004.0 hPa 0.0 l/m 12.3 km/h (3 Bft) W 0.00 h 81 W/m -10.2 C -12.3 C 19.0 km/h (3 Bft)
19.12.2009 14:00 -7.7 C 76 % 1004.5 hPa 0.0 l/m 11.5 km/h (2 Bft) W 0.00 h 70 W/m -11.2 C -13.0 C 18.2 km/h (3 Bft)
19.12.2009 15:00 -8.7 C 75 % 1005.2 hPa 0.0 l/m 16.8 km/h (3 Bft) W 0.00 h 35 W/m -12.4 C -15.5 C 25.0 km/h (4 Bft)
19.12.2009 16:00 -9.8 C 75 % 1006.2 hPa 0.0 l/m 14.6 km/h (3 Bft) W 0.00 h 10 W/m -13.3 C -16.2 C 22.9 km/h (4 Bft)
19.12.2009 17:00 -10.4 C 75 % 1007.6 hPa 0.0 l/m 14.4 km/h (3 Bft) W 0.00 h 0 W/m -13.9 C -17.0 C 22.6 km/h (4 Bft)
19.12.2009 18:00 -10.7 C 76 % 1008.4 hPa 0.0 l/m 10.6 km/h (2 Bft) W 0.00 h 0 W/m -14.1 C -16.2 C 16.7 km/h (3 Bft)
19.12.2009 19:00 -10.7 C 75 % 1009.1 hPa 0.0 l/m 9.6 km/h (2 Bft) W-SW 0.00 h 0 W/m -14.2 C -15.9 C 15.3 km/h (3 Bft)
19.12.2009 20:00 -10.9 C 74 % 1010.2 hPa 0.0 l/m 8.8 km/h (2 Bft) W-SW 0.00 h 0 W/m -14.6 C -15.8 C 14.0 km/h (3 Bft)
19.12.2009 21:00 -11.1 C 72 % 1011.1 hPa 0.0 l/m 9.9 km/h (2 Bft) W 0.00 h 0 W/m -15.1 C -16.4 C 15.6 km/h (3 Bft)
19.12.2009 22:00 -11.6 C 71 % 1011.4 hPa 0.0 l/m 8.4 km/h (2 Bft) W 0.00 h 0 W/m -15.8 C -16.4 C 12.9 km/h (3 Bft)
19.12.2009 23:00 -12.2 C 73 % 1011.7 hPa 0.0 l/m 3.9 km/h (1 Bft) W-NW 0.00 h 0 W/m -15.9 C -13.6 C 7.0 km/h (2 Bft)
20.12.2009 00:00 -12.5 C 74 % 1012.1 hPa 0.0 l/m 3.2 km/h (1 Bft) SW 0.00 h 0 W/m -16.1 C -13.6 C 5.3 km/h (1 Bft)
20.12.2009 01:00 -12.5 C 73 % 1012.2 hPa 0.0 l/m 6.8 km/h (2 Bft) W 0.00 h 0 W/m -16.3 C -16.2 C 11.2 km/h (2 Bft)
20.12.2009 02:00 -12.5 C 71 % 1012.8 hPa 0.0 l/m 5.2 km/h (1 Bft) W 0.00 h 0 W/m -16.7 C -15.4 C 8.1 km/h (2 Bft)
20.12.2009 03:00 -12.5 C 71 % 1013.0 hPa 0.0 l/m 5.4 km/h (1 Bft) W-SW 0.00 h 0 W/m -16.6 C -15.3 C 8.4 km/h (2 Bft)
20.12.2009 04:00 -12.4 C 73 % 1013.1 hPa 0.0 l/m 5.1 km/h (1 Bft) SW 0.00 h 0 W/m -16.2 C -15.2 C 7.8 km/h (2 Bft)
20.12.2009 05:00 -12.4 C 73 % 1013.1 hPa 0.0 l/m 3.6 km/h (1 Bft) S-SW 0.00 h 0 W/m -16.3 C -13.4 C 6.1 km/h (2 Bft)
20.12.2009 06:00 -12.6 C 74 % 1013.4 hPa 0.0 l/m 4.0 km/h (1 Bft) S 0.00 h 0 W/m -16.3 C -14.0 C 7.2 km/h (2 Bft)
20.12.2009 07:00 -12.7 C 74 % 1013.4 hPa 0.0 l/m 1.9 km/h (1 Bft) S-SO 0.00 h 0 W/m -16.3 C -13.2 C 4.5 km/h (1 Bft)
20.12.2009 08:00 -12.8 C 78 % 1013.5 hPa 0.0 l/m 2.0 km/h (1 Bft) S-SO 0.27 h 18 W/m -15.9 C -13.3 C 4.4 km/h (1 Bft)
20.12.2009 09:00 -12.2 C 78 % 1013.1 hPa 0.0 l/m 1.9 km/h (1 Bft) S-SO 0.28 h 66 W/m -15.2 C -12.8 C 3.6 km/h (1 Bft)
20.12.2009 10:00 -11.3 C 77 % 1012.5 hPa 0.0 l/m 0.6 km/h (0 Bft) SO 0.23 h 98 W/m -14.5 C -11.4 C 1.8 km/h (1 Bft)
20.12.2009 11:00 -8.9 C 76 % 1011.2 hPa 0.0 l/m 1.4 km/h (1 Bft) NW 0.83 h 220 W/m -12.4 C -9.1 C 3.2 km/h (1 Bft)
20.12.2009 12:00 -6.9 C 72 % 1010.1 hPa 0.4 l/m 2.5 km/h (1 Bft) N-NW 0.88 h 226 W/m -11.1 C -7.4 C 5.2 km/h (1 Bft)
20.12.2009 13:00 -4.6 C 69 % 1008.6 hPa 0.0 l/m 2.1 km/h (1 Bft) W 0.00 h 110 W/m -9.4 C -4.9 C 4.5 km/h (1 Bft)
20.12.2009 14:00 -3.8 C 67 % 1007.3 hPa 0.0 l/m 1.7 km/h (1 Bft) S-SO 0.00 h 70 W/m -9.1 C -4.1 C 3.7 km/h (1 Bft)
20.12.2009 15:00 -2.8 C 62 % 1006.3 hPa 0.0 l/m 7.0 km/h (2 Bft) SW 0.00 h 29 W/m -9.0 C -5.4 C 12.7 km/h (3 Bft)
20.12.2009 16:00 -2.3 C 62 % 1005.4 hPa 0.0 l/m 8.8 km/h (2 Bft) S-SW 0.00 h 11 W/m -8.5 C -5.6 C 15.5 km/h (3 Bft)
20.12.2009 17:00 -2.4 C 77 % 1005.2 hPa 0.0 l/m 7.6 km/h (2 Bft) S-SW 0.00 h 0 W/m -5.9 C -5.1 C 13.0 km/h (3 Bft)
20.12.2009 18:00 -2.8 C 87 % 1005.2 hPa 0.0 l/m 6.2 km/h (2 Bft) S-SW 0.00 h 0 W/m -4.6 C -4.9 C 11.9 km/h (2 Bft)
20.12.2009 19:00 -2.3 C 91 % 1005.4 hPa 0.6 l/m 2.7 km/h (1 Bft) S-SW 0.00 h 0 W/m -3.6 C -3.1 C 5.4 km/h (1 Bft)
20.12.2009 20:00 -2.4 C 92 % 1005.8 hPa 0.4 l/m 0.2 km/h (0 Bft) N 0.00 h 0 W/m -3.5 C -2.4 C 0.8 km/h (0 Bft)
20.12.2009 21:00 -2.1 C 93 % 1006.3 hPa 0.8 l/m 1.8 km/h (1 Bft) S-SW 0.00 h 0 W/m -3.0 C -2.1 C 3.6 km/h (1 Bft)
20.12.2009 22:00 -0.9 C 94 % 1006.3 hPa 1.0 l/m 1.6 km/h (1 Bft) SW 0.00 h 0 W/m -1.7 C -0.9 C 3.9 km/h (1 Bft)
20.12.2009 23:00 -0.5 C 95 % 1006.4 hPa 1.0 l/m 0.5 km/h (0 Bft) SW 0.00 h 0 W/m -1.2 C -0.5 C 2.0 km/h (1 Bft)
Min-Datum _ 20.12.09 18.12.09 19.12.09 - 14.12.09 - - - 20.12.09 20.12.09 14.12.09
_ Min-Zeit 08:00 13:49 05:30 - 00:01 - - - 02:23 01:33 01:43
Minimum _ -12.9 C 54 % 1003.1 hPa - 0.0 km/h (0 Bft) - - - -16.7 C -20.0 C 0.0 km/h (0 Bft)
Max-Datum _ 20.12.09 20.12.09 14.12.09 20.12.09 19.12.09 - 17.12.09 20.12.09 20.12.09 20.12.09 19.12.09
_ Max-Zeit 23:59 22:41 00:15 22:03 15:35 - 11:13 11:28 23:59 23:59 15:41
Maximum _ -0.3 C 95 % 1016.9 hPa 1.0 l/m 24.3 km/h
W (4 Bft)
- 0.02 h 360 W/m -1.0 C -0.3 C 36.5 km/h
W (5 Bft)
Durchschnitt _ -4.1 C 72 % 1009.9 hPa #4.4 l/m 2.9 km/h (1 Bft) O-SO #5:21 h 62 W/m -8.4 C -5.0 C 5.6 km/h (1 Bft)
© Kaiko 2009